福岡空港の過去48時間の天気

福岡空港 (Fukuoka)

現在時刻: 4/24 21:14 JST (4/24 12:14 UTC) 以下の時間は現地時間です。

過去48時間のMETAR気象情報
時間 風向 風速(m/s) 視程 気温(℃) 湿度(%) 気圧(hPa) 天気現象
24 21:00 7 6,000m 14 88 1007 弱いしゅう雨
24 20:30 7 10km以上 14 88 1007 弱いしゅう雨
24 20:15 6 8,000m 14 94 1007 弱いしゅう雨
24 20:00 6 4,000m 14 94 1007 弱いしゅう雨 もや
24 19:30 6 4,000m 15 88 1006 弱いしゅう雨 もや
24 19:26 北北西 6 4,000m 15 88 1006 弱いしゅう雨 もや
24 19:00 6 7,000m 15 88 1006 弱いしゅう雨
24 18:30 北北西 5 7,000m 15 88 1005 弱いしゅう雨
24 18:00 北北西 6 7,000m 15 88 1005 弱いしゅう雨
24 17:30 北北西 6 7,000m 16 88 1005 弱いしゅう雨
24 17:00 北北西 5 6,000m 16 88 1005 弱いしゅう雨
24 16:30 5 8,000m 16 88 1005 弱いしゅう雨
24 16:00 北北西 6 8,000m 16 88 1005 弱いしゅう雨
24 15:30 北北西 6 6,000m 16 88 1005 弱いしゅう雨
24 15:11 北北西 5 5,000m 16 88 1005 弱いしゅう雨 もや
24 15:00 北北西 5 4,500m 16 94 1005 弱いしゅう雨 もや
24 14:30 北北西 6 4,500m 16 94 1005 弱いしゅう雨 もや
24 14:00 北西 6 7,000m 17 88 1005 弱いしゅう雨
24 13:48 北西 5 6,000m 17 94 1005 弱いしゅう雨
24 13:38 北西 5 4,500m 17 94 1005 しゅう雨 もや
24 13:30 北西 5 2,000m 17 94 1005 しゅう雨 もや
24 13:22 北西 5 2,500m 18 94 1005 しゅう雨 もや
24 13:18 北西 4 3,500m 18 88 1005 しゅう雨 もや
24 13:06 北西 5 4,000m 18 88 1005 弱いしゅう雨 もや
24 13:00 北西 5 6,000m 18 88 1005 弱いしゅう雨
24 12:49 北西 5 6,000m 19 88 1005 弱いしゅう雨
24 12:39 西北西 6 4,000m 19 88 1005 しゅう雨 もや
24 12:30 西北西 5 6,000m 19 88 1005 しゅう雨
24 12:23 西北西 5 8,000m 21 88 1005 弱いしゅう雨
24 12:00 南南東 7 10km以上 21 88 1004 弱いしゅう雨
24 11:30 南東 6 10km以上 21 88 1005 弱いしゅう雨
24 11:00 5 10km以上 20 88 1005 弱いしゅう雨
24 10:30 東南東 2 8,000m 19 94 1005 弱いしゅう雨
24 10:00 4 5,000m 19 88 1006 しゅう雨 もや
24 09:48 不定 2 2,000m 19 88 1006 強いしゅう雨 もや
24 09:36 4 2,000m 18 94 1006 強いしゅう雨 もや
24 09:30 南南東 10 2,000m 18 94 1005 強いしゅう雨 もや
24 09:24 南東 9 2,000m 18 94 1006 強いしゅう雨 もや
24 09:07 南南東 9 2,500m 18 94 1005 しゅう雨 もや
24 09:00 南南東 8 4,000m 18 94 1005 しゅう雨 もや
24 08:30 南南東 8 10km以上 18 88 1006 弱い雨
24 08:00 南南東 10 8,000m 19 83 1006 弱い雨
24 07:30 南東 10 10km以上 19 83 1006 弱い雨
24 07:00 南南東 9 9,000m 19 83 1006 弱い雨
24 06:30 南南東 6 10km以上 19 83 1006 弱い雨
24 06:00 南東 6 10km以上 20 78 1006 弱い雨
24 05:35 4 10km以上 20 78 1006 弱い雨
24 05:30 東南東 4 4,900m 20 78 1007 弱い雨 もや
24 05:00 東南東 5 10km以上 20 78 1007 弱い雨
24 04:30 5 10km以上 21 73 1007 弱い雨
24 04:00 東南東 7 10km以上 21 73 1007
24 03:30 東南東 6 10km以上 21 73 1008
24 03:00 東南東 6 10km以上 21 73 1008 弱い雨
24 02:30 南東 6 10km以上 20 78 1009 弱い雨
24 02:00 南東 5 10km以上 21 73 1009 弱い雨
24 01:30 東南東 4 10km以上 21 73 1009
24 01:00 東南東 4 10km以上 21 73 1010 弱い雨
24 00:30 4 10km以上 21 73 1010
24 00:00 東南東 5 10km以上 21 73 1011
23 23:30 南東 5 10km以上 21 78 1011
23 23:00 南南東 5 10km以上 21 78 1011 弱い雨
23 22:30 南南東 4 10km以上 20 83 1012 弱いしゅう雨
23 21:40 南南東 4 8,000m 21 78 1012 しゅう雨
23 21:30 南南東 4 9,000m 21 78 1012 弱い雨
23 21:00 東南東 3 8,000m 21 78 1012 弱い雨
23 20:30 3 10km以上 21 78 1012 弱い雨
23 20:00 4 10km以上 22 73 1012 弱い雨
23 19:30 3 10km以上 23 65 1012 弱い雨
23 19:00 4 10km以上 23 65 1012
23 18:30 3 10km以上 24 57 1011
23 18:00 5 10km以上 24 57 1012
23 17:30 4 10km以上 24 57 1012
23 17:00 4 10km以上 24 57 1012
23 16:30 4 10km以上 25 54 1012
23 16:00 4 10km以上 25 54 1012
23 15:30 7 10km以上 24 57 1012
23 15:00 南南西 5 10km以上 25 54 1013
23 14:30 5 10km以上 25 54 1013
23 14:00 南南西 4 10km以上 24 57 1013
23 13:30 7 10km以上 24 57 1014
23 13:00 7 10km以上 24 57 1014 弱いしゅう雨
23 12:30 6 10km以上 24 57 1014
23 12:00 南東 6 10km以上 23 61 1015
23 11:30 南南東 5 10km以上 23 61 1015
23 11:00 南東 4 10km以上 21 69 1016
23 10:30 南東 4 10km以上 21 69 1016
23 10:00 東南東 2 10km以上 20 73 1016
23 09:30 不定 1 10km以上 20 73 1016
23 09:00 東南東 2 8,000m 19 78 1016
23 08:30 不定 1 8,000m 19 78 1016
23 08:00 不定 1 8,000m 18 83 1017 弱い雨
23 07:30 不定 1 9,000m 18 83 1017 弱い雨
23 07:00 不定 1 9,000m 18 83 1017
23 06:30 南南西 2 8,000m 18 83 1017
23 06:00 不定 1 8,000m 18 77 1016
23 05:30 静穏 0 9,000m 18 83 1016
23 05:00 不定 1 10km以上 18 77 1016
23 04:30 北北西 1 10km以上 18 77 1016
23 04:00 北北西 2 10km以上 18 77 1016
23 03:30 北北西 2 8,000m 18 83 1016
23 03:00 不定 1 9,000m 18 83 1017
23 02:30 不定 1 10km以上 18 83 1017
23 02:00 不定 1 9,000m 18 77 1017
23 01:30 不定 2 10km以上 18 77 1017
23 01:00 西北西 2 10km以上 18 83 1017
23 00:30 西 3 10km以上 18 77 1018
23 00:00 西 3 10km以上 18 83 1018
22 23:30 北西 2 10km以上 17 88 1017
22 23:00 西 3 10km以上 17 88 1017
22 22:30 西 4 10km以上 18 83 1017
22 22:00 西 3 10km以上 18 83 1017
22 21:30 不定 2 10km以上 19 78 1017
RJFF 241200Z 36013G23KT 6000 -SHRA FEW005 SCT008 BKN010 14/12 Q1007 RMK 1ST005 4ST008 5ST010 A2976
RJFF 241130Z 36013KT 9999 -SHRA FEW005 BKN010 BKN015 14/12 Q1007 RMK 1ST005 5ST010 6CU015 A2975
RJFF 241115Z 35012KT 8000 -SHRA FEW005 SCT008 BKN010 14/13 Q1007 RMK 1ST005 3ST008 5ST010 A2975
RJFF 241100Z 35011KT 4000 -SHRA BR FEW003 SCT007 BKN009 14/13 Q1007 RMK 1ST003 3ST007 5ST009 A2974
RJFF 241030Z 35012KT 320V020 4000 -SHRA BR FEW005 SCT007 BKN009 15/13 Q1006 RMK 1ST005 3ST007 5ST009 A2973
RJFF 241026Z 34012KT 4000 -SHRA BR FEW005 SCT007 BKN009 15/13 Q1006 RMK 1ST005 3ST007 5ST009 A2973
RJFF 241000Z 35012KT 7000 -SHRA FEW005 SCT008 BKN009 15/13 Q1006 RMK 1ST005 3ST008 5ST009 A2972
RJFF 240930Z 34010KT 7000 -SHRA FEW005 SCT007 BKN009 15/13 Q1005 RMK 1ST005 3ST007 5ST009 A2970
RJFF 240900Z 34011KT 7000 -SHRA FEW005 SCT007 BKN010 15/13 Q1005 RMK 1ST005 3ST007 6ST010 A2969
RJFF 240830Z 34011KT 7000 -SHRA FEW005 SCT008 BKN010 16/14 Q1005 RMK 1ST005 3ST008 6ST010 A2968
RJFF 240800Z 34009KT 310V020 6000 -SHRA FEW005 SCT008 BKN010 16/14 Q1005 RMK 1ST005 3ST008 5ST010 A2968
RJFF 240730Z 35009KT 8000 -SHRA FEW003 BKN007 BKN009 16/14 Q1005 RMK 1ST003 6ST007 7ST009 A2969
RJFF 240700Z 34012KT 8000 -SHRA FEW003 BKN006 BKN009 16/14 Q1005 RMK 1ST003 5ST006 7ST009 A2969
RJFF 240630Z 34011KT 6000 -SHRA FEW003 BKN005 BKN009 16/14 Q1005 RMK 1ST003 6ST005 7ST009 A2969
RJFF 240611Z 34010KT 5000 -SHRA BR FEW003 BKN005 BKN009 16/14 Q1005 RMK 1ST003 6ST005 7ST009 A2970
RJFF 240600Z 34009KT 4500 -SHRA BR FEW003 BKN005 BKN008 16/15 Q1005 RMK 1ST003 6ST005 7ST008 A2970
RJFF 240530Z 34012KT 4500 -SHRA BR FEW003 BKN005 BKN008 16/15 Q1005 RMK 1ST003 6ST005 7ST008 A2969
RJFF 240500Z 32011KT 7000 -SHRA FEW003 BKN005 BKN009 17/15 Q1005 RMK 1ST003 6ST005 7ST009 A2969
RJFF 240448Z 31010KT 6000 -SHRA FEW003 BKN005 BKN009 17/16 Q1005 RMK 1ST003 5ST005 6ST009 A2969
RJFF 240438Z 31009KT 4500 R34/1100VP2000U SHRA BR FEW003 BKN005 BKN009 17/16 Q1005 RMK 1ST003 5ST005 6ST009 A2969
RJFF 240430Z 31009KT 2000 R34/1100VP2000D SHRA BR FEW003 BKN005 BKN007 17/16 Q1005
RJFF 240422Z 31009KT 2500 R34/1500VP2000D SHRA BR FEW003 BKN005 BKN007 18/17 Q1005 RMK 1ST003 6ST005 7ST007 A2968
RJFF 240418Z 31008KT 3500 R34/2000N SHRA BR FEW003 BKN005 BKN008 18/16 Q1005 RMK 1ST003 6ST005 7CU008 A2968
RJFF 240406Z 31009KT 4000 R34/2000N -SHRA BR FEW003 BKN005 BKN015 18/16 Q1005 RMK 1ST003 6ST005 7CU015 A2968
RJFF 240400Z 31009KT 6000 -SHRA FEW003 BKN005 BKN015 18/16 Q1005 RMK 1ST003 5ST005 6CU015 A2968
RJFF 240349Z 31009KT 6000 R34/1100VP2000U -SHRA FEW003 BKN005 BKN015 19/17 Q1005 RMK 1ST003 5ST005 6CU015 A2968
RJFF 240339Z 30011KT 4000 R34/1100VP2000D SHRA BR FEW005 SCT015 BKN025 19/17 Q1005 RMK 1ST005 4CU015 6CU025 A2968
RJFF 240330Z 29009KT 250V320 6000 R16/2000N SHRA FEW005 SCT015 BKN035 19/17 Q1005 RMK 1ST005 3CU015 5CU035 A2968
RJFF 240323Z 29010KT 250V310 8000 -SHRA FEW005 SCT020 BKN035 21/19 Q1005 RMK 1ST005 3CU020 5CU035 A2968
RJFF 240300Z 16013KT 9999 -SHRA FEW005 SCT020 BKN035 21/19 Q1004 RMK 1ST005 3CU020 5CU035 A2966
RJFF 240230Z 14012KT 9999 -SHRA FEW008 SCT030 BKN040 21/19 Q1005 RMK 1ST008 3CU030 5CU040 A2968
RJFF 240200Z 17009KT 110V200 9999 -SHRA FEW008 SCT020 BKN040 20/18 Q1005 RMK 1ST008 3CU020 5CU040 A2969
RJFF 240130Z 12004KT 070V170 8000 -SHRA FEW008 SCT020 BKN040 19/18 Q1005 RMK 1ST008 3CU020 5CU040 A2970
RJFF 240100Z 17007KT 5000 SHRA BR FEW010 BKN020 BKN025 19/17 Q1006 RMK 1ST010 5CU020 6CU025 A2972
RJFF 240048Z VRB03KT 2000 R16/0900VP2000D +SHRA BR FEW010 BKN020 BKN025 19/17 Q1006 RMK 1ST010 5CU020 6CU025 A2972
RJFF 240036Z 18008KT 2000 R16/2000N +SHRA BR FEW010 BKN020 BKN030 18/17 Q1006 RMK 1ST010 5CU020 6CU030 A2972 RI++
RJFF 240030Z 15019KT 2000 R16/2000N +SHRA BR FEW010 BKN020 BKN030 18/17 Q1005 RMK 1ST010 5CU020 6CU030 A2970
RJFF 240024Z 14018KT 2000 R16/2000N +SHRA BR FEW010 BKN020 BKN030 18/17 Q1006 RMK 1ST010 5CU020 6CU030 A2971
RJFF 240007Z 15017KT 2500 SHRA BR FEW010 BKN020 BKN030 18/17 Q1005 RMK 1ST010 5CU020 6CU030 A2970
RJFF 240000Z 15015KT 4000 SHRA BR FEW010 SCT020 BKN030 18/17 Q1005 RMK 1ST010 3CU020 6CU030 A2970
RJFF 232330Z 15016KT 9999 -RA FEW015 BKN040 BKN060 18/16 Q1006 RMK 1CU015 5SC040 6SC060 A2971
RJFF 232300Z 15019KT 8000 -RA FEW015 BKN040 BKN070 19/16 Q1006 RMK 1CU015 5SC040 6AC070 A2971
RJFF 232230Z 14020KT 9999 -RA FEW020 BKN045 BKN080 19/16 Q1006 RMK 1CU020 5SC045 6AC080 A2971
RJFF 232200Z 15017KT 9000 -RA FEW020 SCT050 BKN080 19/16 Q1006 RMK 1CU020 3SC050 6AC080 A2971
RJFF 232130Z 15012KT 9999 -RA FEW020 SCT070 BKN100 19/16 Q1006 RMK 1CU020 3AC070 6AC100 A2973
RJFF 232100Z 14011KT 9999 -RA FEW030 SCT050 BKN070 20/16 Q1006 RMK 1CU030 3SC050 6AC070 A2973
RJFF 232035Z AUTO 10007KT 070V130 9999 -RA FEW033 BKN039 BKN047 20/16 Q1006 RMK A2973
RJFF 232030Z AUTO 11007KT 4900 -RA BR BKN039 OVC060 20/16 Q1007 RMK A2974
RJFF 232000Z AUTO 11009KT 9999 -RA SCT038 BKN041 BKN060 20/16 Q1007 RMK A2975
RJFF 231930Z AUTO 10009KT 9999 -RA OVC040 21/16 Q1007 RMK A2975
RJFF 231900Z AUTO 12013KT 9999 OVC040 21/16 Q1007 RMK A2976
RJFF 231830Z AUTO 11011KT 9999 OVC043 21/16 Q1008 RMK A2977
RJFF 231800Z AUTO 12011KT 9999 -RA FEW044 BKN046 OVC090 21/16 Q1008 RMK A2979
RJFF 231730Z AUTO 13011KT 9999 -RA FEW043 SCT050 OVC090 20/16 Q1009 RMK A2979
RJFF 231700Z AUTO 13010KT 9999 -RA FEW043 BKN045 OVC049 21/16 Q1009 RMK A2980
RJFF 231630Z AUTO 12008KT 080V150 9999 OVC046 21/16 Q1009 RMK A2982
RJFF 231600Z AUTO 12008KT 080V150 9999 -RA OVC048 21/16 Q1010 RMK A2984
RJFF 231530Z AUTO 09007KT 060V130 9999 FEW038 OVC048 21/16 Q1010 RMK A2985
RJFF 231500Z AUTO 12009KT 9999 FEW041 BKN050 OVC070 21/16 Q1011 RMK A2986
RJFF 231430Z AUTO 14009KT 9999 FEW048 OVC070 21/17 Q1011 RMK A2987
RJFF 231400Z AUTO 15009KT 9999 -RA FEW047 BKN070 BKN080 21/17 Q1011 RMK A2988
RJFF 231330Z 16008KT 9999 -SHRA FEW010 SCT040 BKN060 20/17 Q1012 RMK 1CU010 4CU040 5SC060 A2989
RJFF 231240Z 16007KT 8000 SHRA FEW010 SCT020 BKN040 21/17 Q1012 RMK 1CU010 3CU020 5CU040 A2990
RJFF 231230Z 16008KT 9000 -RA FEW030 SCT050 BKN070 21/17 Q1012 RMK 1CU030 3SC050 7AC070 A2990
RJFF 231200Z 12005KT 8000 -RA FEW025 SCT050 BKN060 21/17 Q1012 RMK 1CU025 3SC050 7SC060 A2990
RJFF 231130Z 17006KT 9999 -RA FEW040 SCT050 BKN070 21/17 Q1012 RMK 1CU040 4SC050 7AC070 A2989
RJFF 231100Z 17007KT 9999 -RA FEW040 SCT050 BKN080 22/17 Q1012 RMK 1CU040 3SC050 7AC080 A2989
RJFF 231030Z 18006KT 9999 -RA FEW035 SCT080 BKN090 23/16 Q1012 RMK 1CU035 4AC080 7AC090 A2989
RJFF 231000Z 17008KT 9999 FEW035 BKN070 23/16 Q1012 RMK 1CU035 7AC070 A2988
RJFF 230930Z 18006KT 140V210 9999 FEW035 BKN070 24/15 Q1011 RMK 1CU035 7AC070 A2988
RJFF 230900Z 18009KT 140V210 9999 FEW035 SCT045 BKN070 24/15 Q1012 RMK 1CU035 3SC045 7AC070 A2988
RJFF 230830Z 17008KT 150V210 9999 FEW035 BKN045 BKN070 24/15 Q1012 RMK 1CU035 5SC045 7AC070 A2989
RJFF 230800Z 19008KT 9999 FEW035 BKN050 BKN070 24/15 Q1012 RMK 1CU035 5SC050 7AC070 A2989
RJFF 230730Z 18008KT 9999 FEW035 BKN050 BKN070 25/15 Q1012 RMK 1CU035 5SC050 6AC070 A2989
RJFF 230700Z 19008KT 170V240 9999 FEW035 BKN050 BKN070 25/15 Q1012 RMK 1CU035 5SC050 7AC070 A2990
RJFF 230630Z 19013KT 9999 FEW030 BKN050 BKN060 24/15 Q1012 RMK 1CU030 5SC050 6SC060 A2990
RJFF 230600Z 20009KT 170V240 9999 FEW030 SCT040 BKN050 25/15 Q1013 RMK 1CU030 3CU040 5SC050 A2991
RJFF 230530Z 18010KT 140V220 9999 FEW035 SCT040 BKN050 25/15 Q1013 RMK 1CU035 3CU040 5SC050 A2992
RJFF 230500Z 20008KT 160V240 9999 FEW035 SCT040 BKN050 24/15 Q1013 RMK 1CU035 3CU040 5SC050 A2994
RJFF 230430Z 17013KT 9999 FEW035 SCT040 BKN070 24/15 Q1014 RMK 1CU035 3CU040 5AC070 A2994
RJFF 230400Z 17013KT 9999 -SHRA FEW035 SCT040 BKN070 24/15 Q1014 RMK 1CU035 4CU040 6AC070 A2995
RJFF 230330Z 17011KT 130V190 9999 FEW030 SCT040 BKN070 24/15 Q1014 RMK 1CU030 4CU040 6AC070 A2996
RJFF 230300Z 13011KT 110V180 9999 FEW030 BKN060 BKN070 23/15 Q1015 RMK 1CU030 5SC060 6AC070 A2997
RJFF 230230Z 15009KT 9999 FEW030 BKN060 BKN070 23/15 Q1015 RMK 1CU030 5SC060 6AC070 A2999
RJFF 230200Z 13008KT 9999 FEW030 BKN060 BKN070 21/15 Q1016 RMK 1CU030 5SC060 6AC070 A3000
RJFF 230130Z 13007KT 9999 FEW030 BKN060 BKN070 21/15 Q1016 RMK 1CU030 5SC060 6AC070 A3001
RJFF 230100Z 11004KT 070V150 9999 FEW030 BKN060 BKN070 20/15 Q1016 RMK 1CU030 5SC060 6AC070 A3002
RJFF 230030Z VRB02KT 9999 FEW030 BKN060 BKN070 20/15 Q1016 RMK 1CU030 5SC060 6AC070 A3003
RJFF 230000Z 11003KT 060V150 8000 FEW030 BKN070 BKN100 19/15 Q1016 RMK 1CU030 5AC070 7AC100 A3003
RJFF 222330Z VRB02KT 8000 FEW030 BKN070 BKN100 19/15 Q1016 RMK 1CU030 5AC070 7AC100 A3003
RJFF 222300Z VRB01KT 8000 -RA FEW030 BKN070 BKN100 18/15 Q1017 RMK 1CU030 5AC070 7AC100 A3004
RJFF 222230Z VRB02KT 9000 -RA FEW020 BKN070 BKN100 18/15 Q1017 RMK 1CU020 5AC070 7AC100 A3003
RJFF 222200Z VRB02KT 9000 FEW015 BKN070 BKN100 18/15 Q1017 RMK 1CU015 5AC070 7AC100 A3003
RJFF 222130Z 20003KT 150V250 8000 FEW010 SCT015 BKN070 18/15 Q1017 RMK 1CU010 3CU015 7AC070 A3003
RJFF 222100Z VRB01KT 8000 FEW010 BKN015 BKN020 18/14 Q1016 RMK 1CU010 5CU015 7CU020 A3003
RJFF 222030Z AUTO 00000KT 9000 OVC013 18/15 Q1016 RMK A3003
RJFF 222000Z AUTO VRB01KT 9999 OVC013 18/14 Q1016 RMK A3003
RJFF 221930Z AUTO 34002KT 9999 OVC012 18/14 Q1016 RMK A3003
RJFF 221900Z AUTO 33004KT 9999 OVC012 18/14 Q1016 RMK A3003
RJFF 221830Z AUTO 33003KT 290V010 8000 OVC011 18/15 Q1016 RMK A3003
RJFF 221800Z AUTO VRB01KT 9000 OVC011 18/15 Q1017 RMK A3003
RJFF 221730Z AUTO VRB02KT 9999 BKN012 OVC015 18/15 Q1017 RMK A3004
RJFF 221700Z AUTO VRB02KT 9000 FEW012 OVC015 18/14 Q1017 RMK A3005
RJFF 221630Z AUTO VRB03KT 9999 BKN011 BKN015 OVC019 18/14 Q1017 RMK A3005
RJFF 221600Z AUTO 29003KT 240V340 9999 OVC012 18/15 Q1017 RMK A3005
RJFF 221530Z AUTO 28005KT 9999 OVC012 18/14 Q1018 RMK A3006
RJFF 221500Z AUTO 27006KT 9999 BKN011 OVC015 18/15 Q1018 RMK A3006
RJFF 221430Z AUTO 31004KT 270V330 9999 FEW011 BKN015 17/15 Q1017 RMK A3005
RJFF 221400Z AUTO 28005KT 240V320 9999 NCD 17/15 Q1017 RMK A3006
RJFF 221330Z 26007KT CAVOK 18/15 Q1017 RMK A3006
RJFF 221300Z 26005KT CAVOK 18/15 Q1017 RMK A3006
RJFF 221230Z VRB04KT CAVOK 19/15 Q1017 RMK A3005